createdAt,value
2023-01-23T00:00:34.334Z,2.50
2023-01-23T00:04:36.163Z,2.48
2023-01-23T00:08:37.958Z,2.48
2023-01-23T00:12:43.636Z,2.47
2023-01-23T00:16:45.245Z,2.45
2023-01-23T00:20:46.885Z,2.45
2023-01-23T00:24:48.563Z,2.41
2023-01-23T00:28:50.816Z,2.44
2023-01-23T00:32:53.696Z,2.37
2023-01-23T00:36:55.359Z,2.37
2023-01-23T00:40:58.304Z,2.36
2023-01-23T00:45:00.459Z,2.33
2023-01-23T00:49:02.096Z,2.36
2023-01-23T00:53:03.763Z,2.33
2023-01-23T00:57:05.485Z,2.37
2023-01-23T01:01:07.062Z,2.36
2023-01-23T01:05:09.173Z,2.36
2023-01-23T01:09:10.713Z,2.37
2023-01-23T01:13:12.735Z,2.36
2023-01-23T01:17:14.329Z,2.29
2023-01-23T01:21:16.674Z,2.25
2023-01-23T01:25:18.928Z,2.19
2023-01-23T01:29:20.479Z,2.15
2023-01-23T01:33:24.195Z,2.12
2023-01-23T01:37:26.733Z,2.11
2023-01-23T01:41:28.514Z,2.09
2023-01-23T01:46:07.543Z,2.08
2023-01-23T01:50:12.439Z,2.05
2023-01-23T01:54:20.022Z,2.02
2023-01-23T01:58:22.017Z,1.95
2023-01-23T02:02:34.363Z,1.92
2023-01-23T02:06:36.096Z,1.92
2023-01-23T02:10:38.439Z,1.92
2023-01-23T02:14:40.212Z,1.92
2023-01-23T02:18:47.601Z,1.92
2023-01-23T02:23:10.634Z,1.95
2023-01-23T02:27:12.299Z,1.95
2023-01-23T02:31:15.499Z,2.00
2023-01-23T02:35:31.045Z,2.02
2023-01-23T02:39:39.518Z,2.05
2023-01-23T02:43:43.030Z,2.05
2023-01-23T02:47:45.885Z,2.07
2023-01-23T02:51:48.861Z,2.11
2023-01-23T02:55:50.619Z,2.15
2023-01-23T03:00:26.437Z,2.19
2023-01-23T03:04:28.080Z,2.23
2023-01-23T03:08:36.094Z,2.25
2023-01-23T03:12:42.472Z,2.26
2023-01-23T03:16:49.933Z,2.29
2023-01-23T03:20:51.544Z,2.27
2023-01-23T03:24:53.030Z,2.27
2023-01-23T03:29:13.392Z,2.30
2023-01-23T03:33:14.901Z,2.32
2023-01-23T03:37:17.484Z,2.32
2023-01-23T03:41:26.642Z,2.37
2023-01-23T03:45:34.000Z,2.37
2023-01-23T03:49:36.750Z,2.33
2023-01-23T03:53:38.412Z,2.32
2023-01-23T03:57:40.345Z,2.29
2023-01-23T04:01:50.752Z,2.27
2023-01-23T04:05:57.871Z,2.25
2023-01-23T04:10:00.237Z,2.29
2023-01-23T04:14:01.979Z,2.29
2023-01-23T04:18:04.352Z,2.29
2023-01-23T04:22:06.278Z,2.30
2023-01-23T04:26:14.825Z,2.33
2023-01-23T04:30:17.012Z,2.30
2023-01-23T04:34:18.995Z,2.33
2023-01-23T04:38:24.110Z,2.32
2023-01-23T04:42:26.293Z,2.32
2023-01-23T04:46:43.366Z,2.32
2023-01-23T04:50:50.062Z,2.30
2023-01-23T04:54:51.690Z,2.33
2023-01-23T04:58:53.410Z,2.32
2023-01-23T05:02:58.024Z,2.33
2023-01-23T05:07:00.023Z,2.38
2023-01-23T05:11:05.339Z,2.40
2023-01-23T05:15:08.912Z,2.43
2023-01-23T05:19:13.020Z,2.40
2023-01-23T05:23:15.053Z,2.44
2023-01-23T05:27:23.399Z,2.43
2023-01-23T05:31:27.114Z,2.45
2023-01-23T05:35:48.661Z,2.44
2023-01-23T05:39:50.271Z,2.44
2023-01-23T05:43:53.929Z,2.44
2023-01-23T05:48:04.339Z,2.45
2023-01-23T05:52:06.669Z,2.45
2023-01-23T05:56:09.257Z,2.44
2023-01-23T06:00:22.070Z,2.44
2023-01-23T06:04:43.733Z,2.45
2023-01-23T06:09:00.852Z,2.47
2023-01-23T06:13:02.432Z,2.51
2023-01-23T06:17:04.496Z,2.51
2023-01-23T06:21:06.230Z,2.53
2023-01-23T06:25:09.874Z,2.56
2023-01-23T06:29:11.768Z,2.55
2023-01-23T06:33:13.501Z,2.53
2023-01-23T06:37:16.666Z,2.45
2023-01-23T06:41:20.041Z,2.33
2023-01-23T06:45:26.201Z,2.22
2023-01-23T06:49:27.900Z,2.09
2023-01-23T06:53:30.410Z,2.02
2023-01-23T06:57:32.359Z,1.90
2023-01-23T07:01:34.143Z,1.86
2023-01-23T07:05:52.725Z,1.75
2023-01-23T07:09:54.374Z,1.74
2023-01-23T07:13:59.288Z,1.71
2023-01-23T07:18:03.416Z,1.70
2023-01-23T07:22:05.823Z,1.70
2023-01-23T07:26:09.467Z,1.75
2023-01-23T07:30:11.581Z,1.82
2023-01-23T07:34:13.149Z,1.89
2023-01-23T07:38:14.730Z,1.98
2023-01-23T07:42:16.311Z,2.04
2023-01-23T07:46:17.918Z,2.11
2023-01-23T07:50:19.747Z,2.19
2023-01-23T07:54:21.566Z,2.26
2023-01-23T07:58:23.145Z,2.32
2023-01-23T08:02:24.772Z,2.41
2023-01-23T08:06:26.475Z,2.47
2023-01-23T08:10:27.994Z,2.51
2023-01-23T08:14:29.719Z,2.51
2023-01-23T08:18:31.960Z,2.58
2023-01-23T08:22:33.576Z,2.58
2023-01-23T08:26:35.112Z,2.61
2023-01-23T08:30:37.519Z,2.66
2023-01-23T08:34:39.246Z,2.73
2023-01-23T08:38:41.029Z,2.71
2023-01-23T08:42:42.673Z,2.66
2023-01-23T08:46:45.767Z,2.61
2023-01-23T08:50:47.385Z,2.58
2023-01-23T08:54:48.979Z,2.61
2023-01-23T08:58:51.171Z,2.66
2023-01-23T09:02:52.852Z,2.76
2023-01-23T09:06:54.400Z,2.76
2023-01-23T09:11:01.175Z,2.84
2023-01-23T09:15:02.853Z,2.89
2023-01-23T09:19:04.389Z,2.97
2023-01-23T09:23:05.978Z,2.95
2023-01-23T09:27:08.042Z,2.99
2023-01-23T09:31:12.935Z,3.02
2023-01-23T09:35:15.016Z,3.10
2023-01-23T09:39:16.669Z,3.15
2023-01-23T09:43:44.756Z,3.15
2023-01-23T09:48:11.286Z,3.15
2023-01-23T09:52:30.768Z,3.19
2023-01-23T09:56:38.343Z,3.22
2023-01-23T10:00:40.170Z,3.30
2023-01-23T10:04:41.802Z,3.37
2023-01-23T10:09:07.697Z,3.50
2023-01-23T10:13:31.695Z,3.59
2023-01-23T10:18:14.900Z,3.64
2023-01-23T10:22:38.700Z,3.68
2023-01-23T10:26:43.497Z,3.64
2023-01-23T10:30:49.607Z,3.68
2023-01-23T10:34:58.453Z,3.68
2023-01-23T10:39:04.042Z,3.63
2023-01-23T10:43:31.805Z,3.68
2023-01-23T10:47:42.905Z,3.71
2023-01-23T10:51:47.536Z,3.71
2023-01-23T10:55:51.421Z,3.74
2023-01-23T11:00:04.345Z,3.77
2023-01-23T11:04:18.341Z,3.84
2023-01-23T11:08:40.529Z,3.89
2023-01-23T11:12:54.240Z,3.96
2023-01-23T11:17:15.099Z,3.99
2023-01-23T11:21:21.854Z,4.10
2023-01-23T11:25:50.194Z,4.10
2023-01-23T11:30:11.013Z,4.10
2023-01-23T11:34:17.158Z,4.04
2023-01-23T11:38:30.597Z,4.02
2023-01-23T11:42:33.504Z,4.07
2023-01-23T11:46:47.008Z,4.10
2023-01-23T11:50:55.950Z,4.04
2023-01-23T11:54:57.753Z,4.10
2023-01-23T11:59:29.304Z,4.18
2023-01-23T12:03:30.897Z,4.29
2023-01-23T12:08:01.085Z,4.32
2023-01-23T12:12:27.728Z,4.36
2023-01-23T12:16:40.795Z,4.28
2023-01-23T12:21:00.238Z,4.28
2023-01-23T12:25:37.456Z,4.25
2023-01-23T12:29:52.951Z,4.18
2023-01-23T12:34:09.516Z,4.16
2023-01-23T12:38:25.292Z,4.11
2023-01-23T12:42:36.384Z,4.10
2023-01-23T12:46:52.845Z,4.04
2023-01-23T12:51:12.094Z,4.04
2023-01-23T12:55:19.124Z,4.11
2023-01-23T12:59:33.107Z,4.26
2023-01-23T13:03:54.657Z,4.21
2023-01-23T13:08:06.685Z,4.20
2023-01-23T13:12:24.305Z,4.21
2023-01-23T13:16:30.470Z,4.21
2023-01-23T13:20:56.897Z,4.21
2023-01-23T13:25:17.156Z,4.18
2023-01-23T13:29:49.701Z,4.16
2023-01-23T13:33:53.814Z,4.13
2023-01-23T13:37:59.140Z,4.17
2023-01-23T13:42:13.757Z,4.10
2023-01-23T13:46:34.087Z,4.02
2023-01-23T14:21:57.902Z,3.77
2023-01-23T14:26:00.598Z,3.80
2023-01-23T14:30:04.171Z,3.81
2023-01-23T14:34:18.644Z,3.82
2023-01-23T14:38:29.024Z,3.80
2023-01-23T14:42:31.874Z,3.75
2023-01-23T14:46:43.536Z,3.74
2023-01-23T14:50:45.193Z,3.72
2023-01-23T14:54:53.713Z,3.67
2023-01-23T14:58:59.202Z,3.63
2023-01-23T15:03:00.893Z,3.60
2023-01-23T15:07:02.777Z,3.57
2023-01-23T15:11:06.590Z,3.59
2023-01-23T15:15:18.733Z,3.54
2023-01-23T15:19:24.694Z,3.53
2023-01-23T15:23:32.017Z,3.50
2023-01-23T15:27:36.426Z,3.49
2023-01-23T15:31:39.075Z,3.45
2023-01-23T15:35:40.909Z,3.44
2023-01-23T15:39:52.507Z,3.37
2023-01-23T15:43:54.114Z,3.33
2023-01-23T15:47:55.767Z,3.26
2023-01-23T15:51:59.505Z,3.23
2023-01-23T15:56:02.167Z,3.17
2023-01-23T16:00:17.226Z,3.13
2023-01-23T16:04:18.873Z,3.12
2023-01-23T16:08:22.831Z,3.04
2023-01-23T16:12:28.762Z,2.97
2023-01-23T16:16:30.483Z,2.94
2023-01-23T16:20:35.200Z,2.92
2023-01-23T16:24:39.367Z,2.86
2023-01-23T16:28:40.973Z,2.84
2023-01-23T16:32:42.740Z,2.79
2023-01-23T16:36:44.357Z,2.79
2023-01-23T16:40:46.143Z,2.77
2023-01-23T16:44:47.858Z,2.74
2023-01-23T16:48:52.746Z,2.71
2023-01-23T16:53:23.167Z,2.66
2023-01-23T16:57:24.871Z,2.66
2023-01-23T17:01:26.930Z,2.63
2023-01-23T17:05:28.523Z,2.62
2023-01-23T17:09:30.077Z,2.62
2023-01-23T17:13:33.784Z,2.58
2023-01-23T17:17:36.358Z,2.51
2023-01-23T17:21:38.078Z,2.43
2023-01-23T17:25:59.194Z,2.37
2023-01-23T17:30:01.767Z,2.32
2023-01-23T17:34:04.069Z,2.27
2023-01-23T17:38:06.803Z,2.23
2023-01-23T17:42:12.509Z,2.22
2023-01-23T17:46:22.987Z,2.19
2023-01-23T17:50:26.316Z,2.19
2023-01-23T17:54:28.576Z,2.25
2023-01-23T17:58:30.234Z,2.26
2023-01-23T18:02:32.025Z,2.29
2023-01-23T18:06:33.595Z,2.30
2023-01-23T18:10:35.962Z,2.36
2023-01-23T18:14:46.344Z,2.36
2023-01-23T18:18:53.098Z,2.37
2023-01-23T18:22:55.286Z,2.40
2023-01-23T18:27:00.959Z,2.43
2023-01-23T18:31:18.862Z,2.47
2023-01-23T18:35:58.119Z,2.48
2023-01-23T18:40:17.418Z,2.51
2023-01-23T18:44:25.978Z,2.55
2023-01-23T18:48:27.920Z,2.61
2023-01-23T18:53:31.259Z,2.65
2023-01-23T18:58:02.209Z,2.69
2023-01-23T19:02:37.625Z,2.74
2023-01-23T19:06:41.091Z,2.79
2023-01-23T19:10:48.768Z,2.79
2023-01-23T19:15:02.483Z,2.81
2023-01-23T19:19:30.229Z,2.83
2023-01-23T19:23:56.110Z,2.86
2023-01-23T19:27:59.865Z,2.92
2023-01-23T19:32:06.287Z,2.89
2023-01-23T19:36:11.224Z,2.89
2023-01-23T19:40:15.013Z,2.90
2023-01-23T19:44:18.834Z,2.90
2023-01-23T19:48:20.453Z,2.89
2023-01-23T19:52:22.100Z,2.89
2023-01-23T19:56:23.962Z,2.92
2023-01-23T20:00:31.269Z,2.92
2023-01-23T20:04:32.858Z,2.94
2023-01-23T20:08:34.543Z,2.92
2023-01-23T20:12:44.360Z,2.92
2023-01-23T20:16:45.959Z,2.92
2023-01-23T20:20:48.063Z,2.95
2023-01-23T20:24:49.650Z,2.92
2023-01-23T20:28:55.388Z,2.92
2023-01-23T20:36:59.550Z,2.90
2023-01-23T20:41:09.890Z,2.90
2023-01-23T20:45:11.535Z,2.94
2023-01-23T20:49:14.155Z,2.92
2023-01-23T20:53:31.255Z,2.94
2023-01-23T20:57:51.609Z,2.94
2023-01-23T21:02:12.075Z,2.95
2023-01-23T21:06:15.287Z,2.95
2023-01-23T21:10:17.073Z,2.92
2023-01-23T21:14:19.537Z,2.94
2023-01-23T21:18:21.238Z,2.95
2023-01-23T21:22:22.862Z,2.94
2023-01-23T21:26:26.704Z,2.95
2023-01-23T21:30:28.382Z,2.98
2023-01-23T21:34:30.401Z,2.95
2023-01-23T21:38:32.011Z,2.98
2023-01-23T21:42:33.535Z,2.97
2023-01-23T21:46:35.173Z,2.97
2023-01-23T21:50:36.742Z,2.98
2023-01-23T21:54:41.535Z,2.98
2023-01-23T21:58:43.797Z,2.98
2023-01-23T22:02:45.448Z,2.98
2023-01-23T22:06:47.103Z,2.99
2023-01-23T22:10:48.654Z,3.04
2023-01-23T22:14:50.186Z,3.01
2023-01-23T22:18:51.766Z,3.02
2023-01-23T22:22:53.303Z,2.99
2023-01-23T22:26:55.083Z,2.98
2023-01-23T22:30:57.002Z,2.98
2023-01-23T22:34:58.600Z,2.98
2023-01-23T22:39:00.256Z,2.99
2023-01-23T22:43:02.665Z,2.99
2023-01-23T22:47:05.098Z,2.98
2023-01-23T22:51:14.188Z,2.98
2023-01-23T22:55:15.843Z,3.01
2023-01-23T22:59:17.351Z,2.98
2023-01-23T23:03:20.851Z,2.99
2023-01-23T23:07:22.450Z,3.01
2023-01-23T23:11:26.854Z,2.98
2023-01-23T23:15:28.516Z,2.99
2023-01-23T23:19:30.244Z,2.99
2023-01-23T23:23:32.037Z,3.01
2023-01-23T23:27:33.597Z,3.02
2023-01-23T23:31:35.406Z,3.02
2023-01-23T23:35:37.020Z,3.04
2023-01-23T23:39:38.915Z,3.05
2023-01-23T23:43:40.926Z,3.07
2023-01-23T23:47:42.499Z,3.15
2023-01-23T23:51:44.005Z,3.10
2023-01-23T23:55:45.698Z,3.10
2023-01-23T23:59:47.402Z,3.13
